VVDN/DAD METAR and TAF weather

Enter ICAO airport designator
Station Type Date Time Source
VVDN METAR 2021/10/20 07:00 UTC NOAA

VVDN 200700Z 36012KT 9999 FEW015 29/24 Q1012 NOSIG


Station Type Date Time Source
VVDN Decoded METAR 2021/10/20 07:00 UTC NOAA

Da Nang, Vietnam (VVDN) 16-02N 108-11E 7M
Oct 20, 2021 - 03:00 AM EDT / 2021.10.20 0700 UTC
Wind: from the N (360 degrees) at 14 MPH (12 KT):0
Visibility: greater than 7 mile(s):0
Sky conditions: mostly clear
Temperature: 84 F (29 C)
Dew Point: 75 F (24 C)
Relative Humidity: 74%
Pressure (altimeter): 29.88 in. Hg (1012 hPa)
ob: VVDN 200700Z 36012KT 9999 FEW015 29/24 Q1012 NOSIG
cycle: 7

Station Type Date Time Source
VVDN TAF 2021/10/20 06:36 UTC NOAA

TAF VVDN 200500Z 2006/2106 01009KT 9999 FEW015
BECMG 2020/2021 4500 BR
BECMG 2100/2101 7000 NSW

Example: see airport list